sensor_id;sensor_type;location;lat;lon;timestamp;P1;durP1;ratioP1;P2;durP2;ratioP2
8036;SDS011;4061;51.360;7.340;2023-06-22T00:01:16;2.70;;;2.30;;
8036;SDS011;4061;51.360;7.340;2023-06-22T00:03:43;4.32;;;2.53;;
8036;SDS011;4061;51.360;7.340;2023-06-22T00:06:12;4.25;;;2.50;;
8036;SDS011;4061;51.360;7.340;2023-06-22T00:08:39;5.65;;;2.70;;
8036;SDS011;4061;51.360;7.340;2023-06-22T00:11:06;2.70;;;2.50;;
8036;SDS011;4061;51.360;7.340;2023-06-22T00:13:33;2.40;;;2.20;;
8036;SDS011;4061;51.360;7.340;2023-06-22T00:16:00;5.50;;;2.40;;
8036;SDS011;4061;51.360;7.340;2023-06-22T00:18:27;5.28;;;2.22;;
8036;SDS011;4061;51.360;7.340;2023-06-22T00:20:55;4.80;;;2.60;;
8036;SDS011;4061;51.360;7.340;2023-06-22T00:23:25;3.38;;;2.08;;
8036;SDS011;4061;51.360;7.340;2023-06-22T00:25:52;2.45;;;2.20;;
8036;SDS011;4061;51.360;7.340;2023-06-22T00:28:19;2.72;;;2.22;;
8036;SDS011;4061;51.360;7.340;2023-06-22T00:30:46;4.63;;;2.33;;
8036;SDS011;4061;51.360;7.340;2023-06-22T00:33:13;5.28;;;2.90;;
8036;SDS011;4061;51.360;7.340;2023-06-22T00:35:41;3.15;;;2.75;;
8036;SDS011;4061;51.360;7.340;2023-06-22T00:38:08;4.45;;;2.90;;
8036;SDS011;4061;51.360;7.340;2023-06-22T00:40:36;4.97;;;3.20;;
8036;SDS011;4061;51.360;7.340;2023-06-22T00:43:03;2.75;;;2.55;;
8036;SDS011;4061;51.360;7.340;2023-06-22T00:45:30;3.72;;;2.60;;
8036;SDS011;4061;51.360;7.340;2023-06-22T00:47:57;3.55;;;2.72;;
8036;SDS011;4061;51.360;7.340;2023-06-22T00:50:25;6.40;;;2.60;;
8036;SDS011;4061;51.360;7.340;2023-06-22T00:52:53;3.15;;;2.85;;
8036;SDS011;4061;51.360;7.340;2023-06-22T00:55:23;3.97;;;3.45;;
8036;SDS011;4061;51.360;7.340;2023-06-22T00:57:52;3.28;;;2.88;;
8036;SDS011;4061;51.360;7.340;2023-06-22T01:00:21;4.32;;;2.78;;
8036;SDS011;4061;51.360;7.340;2023-06-22T01:02:49;4.05;;;3.10;;
8036;SDS011;4061;51.360;7.340;2023-06-22T01:05:17;11.25;;;3.45;;
8036;SDS011;4061;51.360;7.340;2023-06-22T01:07:47;4.47;;;3.58;;
8036;SDS011;4061;51.360;7.340;2023-06-22T01:10:21;4.47;;;3.10;;
8036;SDS011;4061;51.360;7.340;2023-06-22T01:12:55;6.75;;;3.28;;
8036;SDS011;4061;51.360;7.340;2023-06-22T01:15:27;4.60;;;3.38;;
8036;SDS011;4061;51.360;7.340;2023-06-22T01:17:55;3.25;;;2.78;;
8036;SDS011;4061;51.360;7.340;2023-06-22T01:20:23;6.25;;;3.15;;
8036;SDS011;4061;51.360;7.340;2023-06-22T01:22:57;6.43;;;3.25;;
8036;SDS011;4061;51.360;7.340;2023-06-22T01:25:33;7.10;;;2.80;;
8036;SDS011;4061;51.360;7.340;2023-06-22T01:28:05;6.15;;;2.90;;
8036;SDS011;4061;51.360;7.340;2023-06-22T01:30:47;6.03;;;2.65;;
8036;SDS011;4061;51.360;7.340;2023-06-22T01:33:30;4.45;;;3.28;;
8036;SDS011;4061;51.360;7.340;2023-06-22T01:35:58;5.07;;;3.22;;
8036;SDS011;4061;51.360;7.340;2023-06-22T01:38:25;4.25;;;3.33;;
8036;SDS011;4061;51.360;7.340;2023-06-22T01:40:53;4.25;;;3.50;;
8036;SDS011;4061;51.360;7.340;2023-06-22T01:43:21;5.90;;;3.92;;
8036;SDS011;4061;51.360;7.340;2023-06-22T01:45:50;6.72;;;3.75;;
8036;SDS011;4061;51.360;7.340;2023-06-22T01:48:17;6.70;;;3.25;;
8036;SDS011;4061;51.360;7.340;2023-06-22T01:50:45;3.95;;;3.55;;
8036;SDS011;4061;51.360;7.340;2023-06-22T01:53:12;5.50;;;3.78;;
8036;SDS011;4061;51.360;7.340;2023-06-22T01:55:39;5.72;;;3.90;;
8036;SDS011;4061;51.360;7.340;2023-06-22T01:58:05;6.82;;;3.60;;
8036;SDS011;4061;51.360;7.340;2023-06-22T02:00:33;6.00;;;3.22;;
8036;SDS011;4061;51.360;7.340;2023-06-22T02:03:05;5.13;;;4.03;;
8036;SDS011;4061;51.360;7.340;2023-06-22T02:05:34;11.10;;;3.88;;
8036;SDS011;4061;51.360;7.340;2023-06-22T02:08:05;6.13;;;4.35;;
8036;SDS011;4061;51.360;7.340;2023-06-22T02:10:34;4.53;;;3.70;;
8036;SDS011;4061;51.360;7.340;2023-06-22T02:13:02;3.53;;;3.15;;
8036;SDS011;4061;51.360;7.340;2023-06-22T02:15:30;5.00;;;3.80;;
8036;SDS011;4061;51.360;7.340;2023-06-22T02:17:57;5.28;;;3.80;;
8036;SDS011;4061;51.360;7.340;2023-06-22T02:20:26;7.57;;;4.07;;
8036;SDS011;4061;51.360;7.340;2023-06-22T02:22:53;5.55;;;2.97;;
8036;SDS011;4061;51.360;7.340;2023-06-22T02:25:19;6.18;;;3.90;;
8036;SDS011;4061;51.360;7.340;2023-06-22T02:27:47;4.65;;;3.35;;
8036;SDS011;4061;51.360;7.340;2023-06-22T02:30:13;10.93;;;4.38;;
8036;SDS011;4061;51.360;7.340;2023-06-22T02:32:41;7.80;;;4.50;;
8036;SDS011;4061;51.360;7.340;2023-06-22T02:35:08;9.75;;;4.35;;
8036;SDS011;4061;51.360;7.340;2023-06-22T02:37:37;10.05;;;4.47;;
8036;SDS011;4061;51.360;7.340;2023-06-22T02:40:06;7.13;;;4.43;;
8036;SDS011;4061;51.360;7.340;2023-06-22T02:42:35;6.20;;;3.80;;
8036;SDS011;4061;51.360;7.340;2023-06-22T02:45:02;14.88;;;4.57;;
8036;SDS011;4061;51.360;7.340;2023-06-22T02:47:29;5.32;;;4.32;;
8036;SDS011;4061;51.360;7.340;2023-06-22T02:49:56;12.30;;;4.05;;
8036;SDS011;4061;51.360;7.340;2023-06-22T02:52:23;12.75;;;5.20;;
8036;SDS011;4061;51.360;7.340;2023-06-22T02:54:51;4.95;;;4.45;;
8036;SDS011;4061;51.360;7.340;2023-06-22T02:57:18;5.95;;;4.55;;
8036;SDS011;4061;51.360;7.340;2023-06-22T02:59:45;7.20;;;4.00;;
8036;SDS011;4061;51.360;7.340;2023-06-22T03:02:12;7.32;;;4.28;;
8036;SDS011;4061;51.360;7.340;2023-06-22T03:04:38;5.40;;;4.03;;
8036;SDS011;4061;51.360;7.340;2023-06-22T03:07:05;6.32;;;4.50;;
8036;SDS011;4061;51.360;7.340;2023-06-22T03:09:32;9.38;;;4.93;;
8036;SDS011;4061;51.360;7.340;2023-06-22T03:12:00;5.53;;;4.60;;
8036;SDS011;4061;51.360;7.340;2023-06-22T03:14:27;12.43;;;4.30;;
8036;SDS011;4061;51.360;7.340;2023-06-22T03:16:54;5.38;;;4.88;;
8036;SDS011;4061;51.360;7.340;2023-06-22T03:19:28;6.43;;;4.32;;
8036;SDS011;4061;51.360;7.340;2023-06-22T03:21:56;5.72;;;4.43;;
8036;SDS011;4061;51.360;7.340;2023-06-22T03:24:23;11.80;;;5.18;;
8036;SDS011;4061;51.360;7.340;2023-06-22T03:26:53;6.75;;;4.70;;
8036;SDS011;4061;51.360;7.340;2023-06-22T03:29:22;15.75;;;5.32;;
8036;SDS011;4061;51.360;7.340;2023-06-22T03:31:50;4.85;;;4.38;;
8036;SDS011;4061;51.360;7.340;2023-06-22T03:34:16;5.90;;;4.10;;
8036;SDS011;4061;51.360;7.340;2023-06-22T03:36:43;7.47;;;5.05;;
8036;SDS011;4061;51.360;7.340;2023-06-22T03:39:11;6.07;;;4.35;;
8036;SDS011;4061;51.360;7.340;2023-06-22T03:41:38;9.52;;;4.90;;
8036;SDS011;4061;51.360;7.340;2023-06-22T03:44:05;5.43;;;4.75;;
8036;SDS011;4061;51.360;7.340;2023-06-22T03:46:33;6.03;;;4.97;;
8036;SDS011;4061;51.360;7.340;2023-06-22T03:48:59;5.93;;;4.60;;
8036;SDS011;4061;51.360;7.340;2023-06-22T03:51:28;7.90;;;4.43;;
8036;SDS011;4061;51.360;7.340;2023-06-22T03:53:55;6.43;;;4.10;;
8036;SDS011;4061;51.360;7.340;2023-06-22T03:56:22;4.53;;;4.07;;
8036;SDS011;4061;51.360;7.340;2023-06-22T03:58:49;6.50;;;3.92;;
8036;SDS011;4061;51.360;7.340;2023-06-22T04:01:15;5.40;;;4.57;;
8036;SDS011;4061;51.360;7.340;2023-06-22T04:03:44;8.40;;;4.68;;
8036;SDS011;4061;51.360;7.340;2023-06-22T04:06:13;10.32;;;4.35;;
8036;SDS011;4061;51.360;7.340;2023-06-22T04:08:40;4.43;;;3.67;;
8036;SDS011;4061;51.360;7.340;2023-06-22T04:11:07;5.00;;;3.53;;
8036;SDS011;4061;51.360;7.340;2023-06-22T04:13:34;7.80;;;4.20;;
8036;SDS011;4061;51.360;7.340;2023-06-22T04:16:00;12.90;;;4.43;;
8036;SDS011;4061;51.360;7.340;2023-06-22T04:18:27;4.72;;;4.28;;
8036;SDS011;4061;51.360;7.340;2023-06-22T04:20:56;6.43;;;4.28;;
8036;SDS011;4061;51.360;7.340;2023-06-22T04:23:22;6.80;;;4.47;;
8036;SDS011;4061;51.360;7.340;2023-06-22T04:25:49;9.20;;;4.80;;
8036;SDS011;4061;51.360;7.340;2023-06-22T04:28:16;11.05;;;4.93;;
8036;SDS011;4061;51.360;7.340;2023-06-22T04:30:43;5.22;;;4.22;;
8036;SDS011;4061;51.360;7.340;2023-06-22T04:33:12;5.32;;;4.68;;
8036;SDS011;4061;51.360;7.340;2023-06-22T04:35:39;6.50;;;4.60;;
8036;SDS011;4061;51.360;7.340;2023-06-22T04:38:08;9.43;;;5.40;;
8036;SDS011;4061;51.360;7.340;2023-06-22T04:40:38;8.75;;;5.78;;
8036;SDS011;4061;51.360;7.340;2023-06-22T04:43:05;8.27;;;5.57;;
8036;SDS011;4061;51.360;7.340;2023-06-22T04:45:31;7.90;;;5.72;;
8036;SDS011;4061;51.360;7.340;2023-06-22T04:47:58;9.63;;;5.90;;
8036;SDS011;4061;51.360;7.340;2023-06-22T04:50:25;8.88;;;6.35;;
8036;SDS011;4061;51.360;7.340;2023-06-22T04:52:52;10.13;;;5.72;;
8036;SDS011;4061;51.360;7.340;2023-06-22T04:55:20;7.80;;;4.50;;
8036;SDS011;4061;51.360;7.340;2023-06-22T04:57:47;9.85;;;5.65;;
8036;SDS011;4061;51.360;7.340;2023-06-22T05:00:15;11.50;;;5.65;;
8036;SDS011;4061;51.360;7.340;2023-06-22T05:02:44;7.80;;;5.20;;
8036;SDS011;4061;51.360;7.340;2023-06-22T05:05:11;5.97;;;4.72;;
8036;SDS011;4061;51.360;7.340;2023-06-22T05:07:39;7.90;;;5.18;;
8036;SDS011;4061;51.360;7.340;2023-06-22T05:10:08;8.02;;;5.15;;
8036;SDS011;4061;51.360;7.340;2023-06-22T05:12:37;8.60;;;5.68;;
8036;SDS011;4061;51.360;7.340;2023-06-22T05:15:04;11.10;;;5.65;;
8036;SDS011;4061;51.360;7.340;2023-06-22T05:17:32;8.48;;;5.25;;
8036;SDS011;4061;51.360;7.340;2023-06-22T05:19:59;8.43;;;5.38;;
8036;SDS011;4061;51.360;7.340;2023-06-22T05:22:26;9.30;;;5.82;;
8036;SDS011;4061;51.360;7.340;2023-06-22T05:24:53;7.80;;;5.65;;
8036;SDS011;4061;51.360;7.340;2023-06-22T05:27:19;7.60;;;5.07;;
8036;SDS011;4061;51.360;7.340;2023-06-22T05:29:47;9.13;;;5.38;;
8036;SDS011;4061;51.360;7.340;2023-06-22T05:32:16;6.50;;;5.28;;
8036;SDS011;4061;51.360;7.340;2023-06-22T05:35:11;9.10;;;5.35;;
8036;SDS011;4061;51.360;7.340;2023-06-22T05:37:38;7.93;;;5.18;;
8036;SDS011;4061;51.360;7.340;2023-06-22T05:40:05;7.30;;;5.78;;
8036;SDS011;4061;51.360;7.340;2023-06-22T05:42:34;11.57;;;5.75;;
8036;SDS011;4061;51.360;7.340;2023-06-22T05:45:03;9.02;;;6.18;;
8036;SDS011;4061;51.360;7.340;2023-06-22T05:47:30;6.95;;;5.43;;
8036;SDS011;4061;51.360;7.340;2023-06-22T05:49:57;8.65;;;5.07;;
8036;SDS011;4061;51.360;7.340;2023-06-22T05:52:24;13.15;;;6.55;;
8036;SDS011;4061;51.360;7.340;2023-06-22T05:54:51;10.30;;;5.50;;
8036;SDS011;4061;51.360;7.340;2023-06-22T05:57:18;8.77;;;5.30;;
8036;SDS011;4061;51.360;7.340;2023-06-22T05:59:46;8.07;;;5.45;;
8036;SDS011;4061;51.360;7.340;2023-06-22T06:02:15;7.15;;;5.53;;
8036;SDS011;4061;51.360;7.340;2023-06-22T06:04:42;11.18;;;5.50;;
8036;SDS011;4061;51.360;7.340;2023-06-22T06:07:09;9.38;;;5.53;;
8036;SDS011;4061;51.360;7.340;2023-06-22T06:09:36;6.13;;;5.50;;
8036;SDS011;4061;51.360;7.340;2023-06-22T06:12:03;9.98;;;5.78;;
8036;SDS011;4061;51.360;7.340;2023-06-22T06:14:30;9.57;;;5.28;;
8036;SDS011;4061;51.360;7.340;2023-06-22T06:16:57;7.47;;;5.57;;
8036;SDS011;4061;51.360;7.340;2023-06-22T06:19:26;9.07;;;6.25;;
8036;SDS011;4061;51.360;7.340;2023-06-22T06:21:53;6.03;;;5.03;;
8036;SDS011;4061;51.360;7.340;2023-06-22T06:24:20;10.40;;;6.07;;
8036;SDS011;4061;51.360;7.340;2023-06-22T06:26:47;6.68;;;5.38;;
8036;SDS011;4061;51.360;7.340;2023-06-22T06:29:14;13.23;;;5.50;;
8036;SDS011;4061;51.360;7.340;2023-06-22T06:31:42;8.88;;;4.95;;
8036;SDS011;4061;51.360;7.340;2023-06-22T06:34:09;9.38;;;5.53;;
8036;SDS011;4061;51.360;7.340;2023-06-22T06:36:37;8.80;;;5.40;;
8036;SDS011;4061;51.360;7.340;2023-06-22T06:39:04;8.50;;;5.78;;
8036;SDS011;4061;51.360;7.340;2023-06-22T06:41:31;6.05;;;4.60;;
8036;SDS011;4061;51.360;7.340;2023-06-22T06:43:58;9.95;;;6.40;;
8036;SDS011;4061;51.360;7.340;2023-06-22T06:46:26;11.07;;;6.38;;
8036;SDS011;4061;51.360;7.340;2023-06-22T06:48:53;11.10;;;5.47;;
8036;SDS011;4061;51.360;7.340;2023-06-22T06:51:20;9.73;;;5.28;;
8036;SDS011;4061;51.360;7.340;2023-06-22T06:53:48;5.28;;;4.75;;
8036;SDS011;4061;51.360;7.340;2023-06-22T06:56:15;17.40;;;7.50;;
8036;SDS011;4061;51.360;7.340;2023-06-22T06:58:42;8.60;;;5.55;;
8036;SDS011;4061;51.360;7.340;2023-06-22T07:01:10;8.80;;;6.20;;
8036;SDS011;4061;51.360;7.340;2023-06-22T07:03:37;7.22;;;5.28;;
8036;SDS011;4061;51.360;7.340;2023-06-22T07:06:04;6.25;;;5.65;;
8036;SDS011;4061;51.360;7.340;2023-06-22T07:08:31;8.48;;;5.70;;
8036;SDS011;4061;51.360;7.340;2023-06-22T07:11:01;9.10;;;5.27;;
8036;SDS011;4061;51.360;7.340;2023-06-22T07:13:28;7.45;;;5.95;;
8036;SDS011;4061;51.360;7.340;2023-06-22T07:15:55;15.45;;;6.65;;
8036;SDS011;4061;51.360;7.340;2023-06-22T07:18:23;7.28;;;5.85;;
8036;SDS011;4061;51.360;7.340;2023-06-22T07:20:51;8.55;;;5.72;;
8036;SDS011;4061;51.360;7.340;2023-06-22T07:23:18;11.77;;;6.75;;
8036;SDS011;4061;51.360;7.340;2023-06-22T07:25:45;9.32;;;6.30;;
8036;SDS011;4061;51.360;7.340;2023-06-22T07:28:14;6.65;;;5.85;;
8036;SDS011;4061;51.360;7.340;2023-06-22T07:30:41;9.93;;;6.00;;
8036;SDS011;4061;51.360;7.340;2023-06-22T07:33:08;10.18;;;6.43;;
8036;SDS011;4061;51.360;7.340;2023-06-22T07:35:35;9.63;;;7.43;;
8036;SDS011;4061;51.360;7.340;2023-06-22T07:38:02;13.00;;;7.13;;
8036;SDS011;4061;51.360;7.340;2023-06-22T07:40:29;12.32;;;6.78;;
8036;SDS011;4061;51.360;7.340;2023-06-22T07:42:56;10.40;;;6.57;;
8036;SDS011;4061;51.360;7.340;2023-06-22T07:45:24;14.05;;;7.60;;
8036;SDS011;4061;51.360;7.340;2023-06-22T07:47:51;11.82;;;8.30;;
8036;SDS011;4061;51.360;7.340;2023-06-22T07:50:18;21.70;;;7.80;;
8036;SDS011;4061;51.360;7.340;2023-06-22T07:52:46;11.48;;;8.00;;
8036;SDS011;4061;51.360;7.340;2023-06-22T07:55:13;12.75;;;7.30;;
8036;SDS011;4061;51.360;7.340;2023-06-22T07:57:40;11.43;;;7.75;;
8036;SDS011;4061;51.360;7.340;2023-06-22T08:00:08;9.63;;;7.78;;
8036;SDS011;4061;51.360;7.340;2023-06-22T08:02:40;10.13;;;7.50;;
8036;SDS011;4061;51.360;7.340;2023-06-22T08:05:07;10.65;;;8.15;;
8036;SDS011;4061;51.360;7.340;2023-06-22T08:07:35;12.23;;;7.20;;
8036;SDS011;4061;51.360;7.340;2023-06-22T08:10:03;12.13;;;7.30;;
8036;SDS011;4061;51.360;7.340;2023-06-22T08:12:30;10.98;;;7.50;;
8036;SDS011;4061;51.360;7.340;2023-06-22T08:14:57;9.00;;;7.22;;
8036;SDS011;4061;51.360;7.340;2023-06-22T08:17:24;13.55;;;7.95;;
8036;SDS011;4061;51.360;7.340;2023-06-22T08:19:52;10.23;;;6.93;;
8036;SDS011;4061;51.360;7.340;2023-06-22T08:22:19;16.35;;;7.53;;
8036;SDS011;4061;51.360;7.340;2023-06-22T08:24:46;11.63;;;6.85;;
8036;SDS011;4061;51.360;7.340;2023-06-22T08:27:14;13.05;;;6.88;;
8036;SDS011;4061;51.360;7.340;2023-06-22T08:29:43;10.65;;;6.75;;
8036;SDS011;4061;51.360;7.340;2023-06-22T08:32:10;9.60;;;7.22;;
8036;SDS011;4061;51.360;7.340;2023-06-22T08:34:37;9.35;;;6.45;;
8036;SDS011;4061;51.360;7.340;2023-06-22T08:37:08;8.98;;;6.72;;
8036;SDS011;4061;51.360;7.340;2023-06-22T08:39:35;8.52;;;6.15;;
8036;SDS011;4061;51.360;7.340;2023-06-22T08:42:04;12.65;;;6.53;;
8036;SDS011;4061;51.360;7.340;2023-06-22T08:44:31;8.80;;;5.65;;
8036;SDS011;4061;51.360;7.340;2023-06-22T08:46:58;8.75;;;6.00;;
8036;SDS011;4061;51.360;7.340;2023-06-22T08:49:25;7.22;;;5.78;;
8036;SDS011;4061;51.360;7.340;2023-06-22T08:51:52;6.30;;;5.45;;
8036;SDS011;4061;51.360;7.340;2023-06-22T08:54:23;5.75;;;4.90;;
8036;SDS011;4061;51.360;7.340;2023-06-22T08:56:50;6.95;;;4.82;;
8036;SDS011;4061;51.360;7.340;2023-06-22T08:59:17;4.93;;;4.50;;
8036;SDS011;4061;51.360;7.340;2023-06-22T09:01:44;5.22;;;4.63;;
8036;SDS011;4061;51.360;7.340;2023-06-22T09:04:13;6.47;;;4.80;;
8036;SDS011;4061;51.360;7.340;2023-06-22T09:06:40;10.55;;;4.32;;
8036;SDS011;4061;51.360;7.340;2023-06-22T09:09:10;6.10;;;4.50;;
8036;SDS011;4061;51.360;7.340;2023-06-22T09:11:38;7.97;;;4.03;;
8036;SDS011;4061;51.360;7.340;2023-06-22T09:14:05;8.90;;;4.15;;
8036;SDS011;4061;51.360;7.340;2023-06-22T09:16:32;8.25;;;5.22;;
8036;SDS011;4061;51.360;7.340;2023-06-22T09:18:59;7.78;;;4.72;;
8036;SDS011;4061;51.360;7.340;2023-06-22T09:21:26;4.82;;;4.43;;
8036;SDS011;4061;51.360;7.340;2023-06-22T09:23:54;11.70;;;5.25;;
8036;SDS011;4061;51.360;7.340;2023-06-22T09:26:21;5.05;;;3.92;;
8036;SDS011;4061;51.360;7.340;2023-06-22T09:28:50;8.05;;;5.32;;
8036;SDS011;4061;51.360;7.340;2023-06-22T09:31:17;9.43;;;5.68;;
8036;SDS011;4061;51.360;7.340;2023-06-22T09:33:50;7.28;;;5.50;;
8036;SDS011;4061;51.360;7.340;2023-06-22T09:36:17;7.47;;;5.07;;
8036;SDS011;4061;51.360;7.340;2023-06-22T09:38:44;6.55;;;5.30;;
8036;SDS011;4061;51.360;7.340;2023-06-22T09:41:11;7.10;;;4.88;;
8036;SDS011;4061;51.360;7.340;2023-06-22T09:43:38;11.50;;;6.85;;
8036;SDS011;4061;51.360;7.340;2023-06-22T09:46:06;7.20;;;5.97;;
8036;SDS011;4061;51.360;7.340;2023-06-22T09:48:34;10.23;;;5.90;;
8036;SDS011;4061;51.360;7.340;2023-06-22T09:51:01;8.70;;;5.18;;
8036;SDS011;4061;51.360;7.340;2023-06-22T09:53:28;6.55;;;4.95;;
8036;SDS011;4061;51.360;7.340;2023-06-22T09:55:55;8.60;;;4.95;;
8036;SDS011;4061;51.360;7.340;2023-06-22T09:58:23;8.75;;;5.18;;
8036;SDS011;4061;51.360;7.340;2023-06-22T10:00:50;6.97;;;4.20;;
8036;SDS011;4061;51.360;7.340;2023-06-22T10:03:19;6.82;;;4.35;;
8036;SDS011;4061;51.360;7.340;2023-06-22T10:05:46;5.28;;;4.57;;
8036;SDS011;4061;51.360;7.340;2023-06-22T10:08:13;12.40;;;5.35;;
8036;SDS011;4061;51.360;7.340;2023-06-22T10:10:40;5.75;;;4.90;;
8036;SDS011;4061;51.360;7.340;2023-06-22T10:13:08;15.23;;;5.47;;
8036;SDS011;4061;51.360;7.340;2023-06-22T10:15:35;4.43;;;4.03;;
8036;SDS011;4061;51.360;7.340;2023-06-22T10:18:02;5.05;;;4.28;;
8036;SDS011;4061;51.360;7.340;2023-06-22T10:20:31;7.30;;;4.93;;
8036;SDS011;4061;51.360;7.340;2023-06-22T10:22:58;8.52;;;4.63;;
8036;SDS011;4061;51.360;7.340;2023-06-22T10:25:26;5.75;;;5.00;;
8036;SDS011;4061;51.360;7.340;2023-06-22T10:27:53;6.88;;;4.30;;
8036;SDS011;4061;51.360;7.340;2023-06-22T10:30:20;6.68;;;4.50;;
8036;SDS011;4061;51.360;7.340;2023-06-22T10:32:48;9.75;;;4.90;;
8036;SDS011;4061;51.360;7.340;2023-06-22T10:35:15;9.07;;;4.65;;
8036;SDS011;4061;51.360;7.340;2023-06-22T10:37:44;6.25;;;4.35;;
8036;SDS011;4061;51.360;7.340;2023-06-22T10:40:12;6.40;;;4.70;;
8036;SDS011;4061;51.360;7.340;2023-06-22T10:42:39;9.45;;;5.18;;
8036;SDS011;4061;51.360;7.340;2023-06-22T10:45:07;7.95;;;5.03;;
8036;SDS011;4061;51.360;7.340;2023-06-22T10:47:34;7.95;;;5.60;;
8036;SDS011;4061;51.360;7.340;2023-06-22T10:50:01;8.55;;;4.80;;
8036;SDS011;4061;51.360;7.340;2023-06-22T10:52:28;7.47;;;4.28;;
8036;SDS011;4061;51.360;7.340;2023-06-22T10:54:57;6.38;;;4.55;;
8036;SDS011;4061;51.360;7.340;2023-06-22T10:57:24;5.22;;;4.72;;
8036;SDS011;4061;51.360;7.340;2023-06-22T10:59:51;6.32;;;4.65;;
8036;SDS011;4061;51.360;7.340;2023-06-22T11:02:18;7.57;;;4.70;;
8036;SDS011;4061;51.360;7.340;2023-06-22T11:04:45;8.40;;;6.05;;
8036;SDS011;4061;51.360;7.340;2023-06-22T11:07:12;9.48;;;4.95;;
8036;SDS011;4061;51.360;7.340;2023-06-22T11:09:39;8.90;;;5.00;;
8036;SDS011;4061;51.360;7.340;2023-06-22T11:12:08;9.50;;;5.78;;
8036;SDS011;4061;51.360;7.340;2023-06-22T11:14:35;11.73;;;5.88;;
8036;SDS011;4061;51.360;7.340;2023-06-22T11:17:02;11.45;;;6.55;;
8036;SDS011;4061;51.360;7.340;2023-06-22T11:19:29;13.30;;;6.20;;
8036;SDS011;4061;51.360;7.340;2023-06-22T11:21:56;9.18;;;6.88;;
8036;SDS011;4061;51.360;7.340;2023-06-22T11:24:23;8.60;;;6.20;;
8036;SDS011;4061;51.360;7.340;2023-06-22T11:26:50;9.15;;;6.30;;
8036;SDS011;4061;51.360;7.340;2023-06-22T11:29:19;11.70;;;7.20;;
8036;SDS011;4061;51.360;7.340;2023-06-22T11:31:46;7.60;;;6.78;;
8036;SDS011;4061;51.360;7.340;2023-06-22T11:34:13;13.68;;;6.65;;
8036;SDS011;4061;51.360;7.340;2023-06-22T11:36:41;10.95;;;6.72;;
8036;SDS011;4061;51.360;7.340;2023-06-22T11:39:09;9.27;;;7.32;;
8036;SDS011;4061;51.360;7.340;2023-06-22T11:41:36;11.90;;;7.60;;
8036;SDS011;4061;51.360;7.340;2023-06-22T11:44:04;11.88;;;7.47;;
8036;SDS011;4061;51.360;7.340;2023-06-22T11:46:32;13.27;;;8.23;;
8036;SDS011;4061;51.360;7.340;2023-06-22T11:48:59;16.38;;;8.50;;
8036;SDS011;4061;51.360;7.340;2023-06-22T11:51:27;10.88;;;8.00;;
8036;SDS011;4061;51.360;7.340;2023-06-22T11:53:56;19.15;;;9.02;;
8036;SDS011;4061;51.360;7.340;2023-06-22T11:56:23;13.68;;;8.73;;
8036;SDS011;4061;51.360;7.340;2023-06-22T11:58:50;16.73;;;9.48;;
8036;SDS011;4061;51.360;7.340;2023-06-22T12:01:19;15.52;;;9.35;;
8036;SDS011;4061;51.360;7.340;2023-06-22T12:03:47;17.80;;;10.07;;
8036;SDS011;4061;51.360;7.340;2023-06-22T12:06:14;14.90;;;10.18;;
8036;SDS011;4061;51.360;7.340;2023-06-22T12:08:41;18.88;;;10.20;;
8036;SDS011;4061;51.360;7.340;2023-06-22T12:11:08;15.25;;;9.90;;
8036;SDS011;4061;51.360;7.340;2023-06-22T12:13:35;26.17;;;10.32;;
8036;SDS011;4061;51.360;7.340;2023-06-22T12:16:03;20.88;;;10.80;;
8036;SDS011;4061;51.360;7.340;2023-06-22T12:18:30;19.00;;;10.30;;
8036;SDS011;4061;51.360;7.340;2023-06-22T12:20:58;19.27;;;11.02;;
8036;SDS011;4061;51.360;7.340;2023-06-22T12:23:25;17.85;;;11.35;;
8036;SDS011;4061;51.360;7.340;2023-06-22T12:25:52;20.15;;;12.43;;
8036;SDS011;4061;51.360;7.340;2023-06-22T12:28:19;15.80;;;10.80;;
8036;SDS011;4061;51.360;7.340;2023-06-22T12:30:48;15.13;;;9.80;;
8036;SDS011;4061;51.360;7.340;2023-06-22T12:33:15;14.55;;;10.18;;
8036;SDS011;4061;51.360;7.340;2023-06-22T12:35:43;18.48;;;10.95;;
8036;SDS011;4061;51.360;7.340;2023-06-22T12:38:12;15.18;;;9.68;;
8036;SDS011;4061;51.360;7.340;2023-06-22T12:40:39;23.48;;;11.02;;
8036;SDS011;4061;51.360;7.340;2023-06-22T12:43:06;23.00;;;10.63;;
8036;SDS011;4061;51.360;7.340;2023-06-22T12:45:33;16.02;;;10.10;;
8036;SDS011;4061;51.360;7.340;2023-06-22T12:48:00;15.75;;;11.15;;
8036;SDS011;4061;51.360;7.340;2023-06-22T12:50:27;19.83;;;11.13;;
8036;SDS011;4061;51.360;7.340;2023-06-22T12:52:54;14.23;;;9.65;;
8036;SDS011;4061;51.360;7.340;2023-06-22T12:55:23;15.77;;;10.07;;
8036;SDS011;4061;51.360;7.340;2023-06-22T12:57:50;13.20;;;9.60;;
8036;SDS011;4061;51.360;7.340;2023-06-22T13:00:17;16.48;;;10.35;;
8036;SDS011;4061;51.360;7.340;2023-06-22T13:02:44;15.68;;;9.68;;
8036;SDS011;4061;51.360;7.340;2023-06-22T13:05:12;17.40;;;9.27;;
8036;SDS011;4061;51.360;7.340;2023-06-22T13:07:39;14.05;;;9.60;;
8036;SDS011;4061;51.360;7.340;2023-06-22T13:10:07;13.50;;;8.38;;
8036;SDS011;4061;51.360;7.340;2023-06-22T13:12:36;13.85;;;8.90;;
8036;SDS011;4061;51.360;7.340;2023-06-22T13:15:04;13.55;;;8.65;;
8036;SDS011;4061;51.360;7.340;2023-06-22T13:17:31;12.40;;;8.20;;
8036;SDS011;4061;51.360;7.340;2023-06-22T13:19:58;15.32;;;9.57;;
8036;SDS011;4061;51.360;7.340;2023-06-22T13:22:26;16.60;;;9.32;;
8036;SDS011;4061;51.360;7.340;2023-06-22T13:24:54;15.15;;;9.70;;
8036;SDS011;4061;51.360;7.340;2023-06-22T13:27:21;12.32;;;7.45;;
8036;SDS011;4061;51.360;7.340;2023-06-22T13:29:50;20.20;;;9.65;;
8036;SDS011;4061;51.360;7.340;2023-06-22T13:32:17;14.43;;;8.43;;
8036;SDS011;4061;51.360;7.340;2023-06-22T13:34:44;14.63;;;8.82;;
8036;SDS011;4061;51.360;7.340;2023-06-22T13:37:11;14.68;;;9.85;;
8036;SDS011;4061;51.360;7.340;2023-06-22T13:39:38;13.48;;;9.25;;
8036;SDS011;4061;51.360;7.340;2023-06-22T13:42:05;12.18;;;8.32;;
8036;SDS011;4061;51.360;7.340;2023-06-22T13:44:32;12.55;;;8.88;;
8036;SDS011;4061;51.360;7.340;2023-06-22T13:47:01;13.85;;;8.95;;
8036;SDS011;4061;51.360;7.340;2023-06-22T13:49:29;13.95;;;8.82;;
8036;SDS011;4061;51.360;7.340;2023-06-22T13:51:57;12.80;;;9.48;;
8036;SDS011;4061;51.360;7.340;2023-06-22T13:54:24;14.82;;;9.65;;
8036;SDS011;4061;51.360;7.340;2023-06-22T13:56:51;14.57;;;9.85;;
8036;SDS011;4061;51.360;7.340;2023-06-22T13:59:18;15.40;;;9.20;;
8036;SDS011;4061;51.360;7.340;2023-06-22T14:01:46;16.98;;;8.75;;
8036;SDS011;4061;51.360;7.340;2023-06-22T14:04:14;16.35;;;9.32;;
8036;SDS011;4061;51.360;7.340;2023-06-22T14:06:41;14.18;;;9.13;;
8036;SDS011;4061;51.360;7.340;2023-06-22T14:09:08;14.02;;;9.73;;
8036;SDS011;4061;51.360;7.340;2023-06-22T14:11:35;12.02;;;9.07;;
8036;SDS011;4061;51.360;7.340;2023-06-22T14:14:02;14.68;;;9.40;;
8036;SDS011;4061;51.360;7.340;2023-06-22T14:16:29;16.17;;;9.50;;
8036;SDS011;4061;51.360;7.340;2023-06-22T14:18:56;17.10;;;9.77;;
8036;SDS011;4061;51.360;7.340;2023-06-22T14:21:25;13.13;;;8.70;;
8036;SDS011;4061;51.360;7.340;2023-06-22T14:23:52;10.07;;;7.30;;
8036;SDS011;4061;51.360;7.340;2023-06-22T14:26:19;12.75;;;8.90;;
8036;SDS011;4061;51.360;7.340;2023-06-22T14:28:47;13.05;;;8.90;;
8036;SDS011;4061;51.360;7.340;2023-06-22T14:31:15;15.32;;;9.18;;
8036;SDS011;4061;51.360;7.340;2023-06-22T14:33:44;12.73;;;8.52;;
8036;SDS011;4061;51.360;7.340;2023-06-22T14:36:12;14.13;;;8.25;;
8036;SDS011;4061;51.360;7.340;2023-06-22T14:38:41;12.60;;;8.25;;
8036;SDS011;4061;51.360;7.340;2023-06-22T14:41:08;8.40;;;7.15;;
8036;SDS011;4061;51.360;7.340;2023-06-22T14:43:36;8.90;;;7.13;;
8036;SDS011;4061;51.360;7.340;2023-06-22T14:46:03;9.50;;;7.40;;
8036;SDS011;4061;51.360;7.340;2023-06-22T14:48:30;12.07;;;6.82;;
8036;SDS011;4061;51.360;7.340;2023-06-22T14:50:57;14.98;;;7.85;;
8036;SDS011;4061;51.360;7.340;2023-06-22T14:53:25;11.43;;;8.68;;
8036;SDS011;4061;51.360;7.340;2023-06-22T14:55:53;13.07;;;9.60;;
8036;SDS011;4061;51.360;7.340;2023-06-22T14:58:21;11.32;;;8.15;;
8036;SDS011;4061;51.360;7.340;2023-06-22T15:00:48;10.50;;;7.47;;
8036;SDS011;4061;51.360;7.340;2023-06-22T15:03:15;11.05;;;7.43;;
8036;SDS011;4061;51.360;7.340;2023-06-22T15:05:46;12.25;;;7.40;;
8036;SDS011;4061;51.360;7.340;2023-06-22T15:08:13;12.35;;;7.75;;
8036;SDS011;4061;51.360;7.340;2023-06-22T15:10:41;10.38;;;8.07;;
8036;SDS011;4061;51.360;7.340;2023-06-22T15:13:09;15.40;;;8.65;;